Akron, OH (44301)

8:06 PM EDT on July 27, 2016 (GMT -0400)
Pro-Tech Systems Group | | Change Station

Elev 1004 ft 41.03 °N, 81.52 °W | Updated 3 minutes ago

Clear
Clear
85.3 °F
Feels Like 86 °F
N
0.0
Wind Variable Wind from NW
Gusts 3.0 mph

Today
High -- | Low -- °F
--% Chance of Precip.
Yesterday
High -- | Low -- °F
Precip. -- in
Pressure 29.92 in
Visibility 10.0 miles
Clouds Clear
Heat Index 86 °F
Dew Point 63 °F
Humidity 47%
Rainfall 0.00 in
Snow Depth Not available.
6:17 AM 8:46 PM
Last Quarter, 38% visible
METAR KAKR 272354Z AUTO 36010KT 10SM CLR 30/16 A2994 RMK AO2 SLP130 T03000161 10328 20300 55005
Pressure 29.92 in
Visibility 10.0 miles
Clouds Clear
Heat Index 86 °F
Dew Point 63 °F
Humidity 47%
Rainfall 0.00 in
Snow Depth Not available.
6:17 AM 8:46 PM
Last Quarter, 38% visible
METAR KAKR 272354Z AUTO 36010KT 10SM CLR 30/16 A2994 RMK AO2 SLP130 T03000161 10328 20300 55005

10-Day Weather Forecast

Almanac

Astronomy

Jul. 27, 2016 Rise Set
Actual Time
Civil Twilight
Nautical Twilight
Astronomical Twilight
Moon
Length of Visible Light
Length of Day
Tomorrow will be .
, % of the Moon is Illuminated

Today's Extremes

State Highs State Lows

Community

WunderPhotos

Upload Photos

1,927,963 photos uploaded!

WunderBlog® & News

Nearby

Air Quality

  Air Quality AQ Index Pollutant
Not available.

Snow Depth

Station Depth Elevation

Earthquake Activity

City Distance Mag. Time & Date
Minimum magnitude displayed is 2.5.

Coastal Water Temperatures

Place Temperature

Stations

Nearby Weather Stations

Station Location Temp. Windchill Dew Point Humidity Wind Precip. Elev Updated Type
                   

Watches & Warnings

There are currently no watches in effect.